Latest Weather Observations for Portland Harbour

IDV60801

Issued at 11:31 pm EST Monday 27 April 2015 (issued every 30 minutes, with the page automatically refreshed every 10 minutes)

About weather observations | Map of weather stations | Latest weather observations for VIC | Other Formats
Station Details ID: 090192 Name: PORTLAND NTC AWS Lat: -38.34 Lon: 141.61 Height: 0.0 m
Data from the previous 72 hours. | See also: Recent months for locations in Victoria
Date/Time
EST
Temp
°C
App
Temp
°C
Dew
Point
Rel
Hum
%
Delta-T
°C
Wind Press
QNH
hPa
Press
MSL
hPa
Rain
since 9 am
mm
Dir
 
Spd
km/h
Gust
km/h
Spd
kts
Gust
kts
27/11:30pm 12.8 - - - - S 13 19 7 10 1027.8 1027.8 -
27/11:00pm 12.7 - - - - S 13 19 7 10 1027.8 1027.8 -
27/10:30pm 12.7 - - - - S 13 17 7 9 1027.7 1027.7 -
27/10:00pm 12.7 - - - - S 15 19 8 10 1027.6 1027.6 -
27/09:30pm 12.8 - - - - S 13 19 7 10 1027.3 1027.3 -
27/09:00pm 13.0 - - - - S 15 20 8 11 1027.2 1027.2 -
27/08:30pm 12.5 - - - - S 7 9 4 5 1027.0 1027.0 -
27/08:00pm 12.4 - - - - S 9 11 5 6 1026.9 1026.9 -
27/07:30pm 12.2 - - - - SSW 22 30 12 16 1026.8 1026.8 -
27/07:00pm 12.8 - - - - S 15 24 8 13 1026.4 1026.4 -
27/06:30pm 12.9 - - - - S 13 17 7 9 1026.1 1026.1 -
27/06:00pm 12.7 - - - - SSW 13 17 7 9 1025.8 1025.8 -
27/05:30pm 12.4 - - - - SSW 20 28 11 15 1025.7 1025.7 -
27/05:00pm 12.8 - - - - SSW 11 19 6 10 1025.6 1025.6 -
27/04:30pm 13.5 - - - - SSW 17 22 9 12 1025.3 1025.3 -
27/04:00pm 13.5 - - - - SSW 19 24 10 13 1025.2 1025.2 -
27/03:30pm 12.8 - - - - SSW 9 13 5 7 1025.1 1025.1 -
27/03:00pm 12.1 - - - - SSW 20 33 11 18 1025.1 1025.1 -
27/02:30pm 13.4 - - - - S 22 30 12 16 1024.7 1024.7 -
27/02:00pm 13.2 - - - - S 24 32 13 17 1024.6 1024.6 -
27/01:30pm 12.6 - - - - SSW 19 26 10 14 1024.6 1024.6 -
27/01:00pm 13.4 - - - - SSW 20 28 11 15 1024.7 1024.7 -
27/12:30pm 12.8 - - - - SSW 19 32 10 17 1025.0 1025.0 -
27/12:00pm 13.7 - - - - SSW 20 26 11 14 1025.1 1025.1 -
27/11:30am 13.2 - - - - SSW 22 33 12 18 1025.3 1025.3 -
27/11:00am 12.3 - - - - SSW 22 37 12 20 1025.5 1025.5 -
27/10:30am 13.3 - - - - SSW 17 24 9 13 1025.2 1025.2 -
27/10:00am 12.8 - - - - SW 11 19 6 10 1025.1 1025.1 -
27/09:30am 12.4 - - - - SW 19 30 10 16 1025.0 1025.0 -
27/09:00am 11.6 - - - - SW 17 24 9 13 1024.9 1024.9 -
27/08:30am 12.5 - - - - SW 15 20 8 11 1024.6 1024.6 -
27/08:00am 11.8 - - - - SSW 15 19 8 10 1024.3 1024.3 -
27/07:30am 12.1 - - - - WSW 13 33 7 18 1024.0 1024.0 -
27/07:00am 12.0 - - - - SW 13 19 7 10 1023.6 1023.6 -
27/06:30am 12.3 - - - - SW 15 20 8 11 1023.4 1023.4 -
27/06:00am 11.8 - - - - SW 11 17 6 9 1023.4 1023.4 -
27/05:30am 11.8 - - - - SW 22 33 12 18 1023.5 1023.5 -
27/05:00am 12.2 - - - - SW 13 19 7 10 1023.1 1023.1 -
27/04:30am 12.1 - - - - SSW 22 30 12 16 1022.9 1022.9 -
27/04:00am 12.4 - - - - SW 13 20 7 11 1022.7 1022.7 -
27/03:30am 12.3 - - - - SW 17 24 9 13 1022.7 1022.7 -
27/03:00am 12.4 - - - - SW 13 17 7 9 1022.8 1022.8 -
27/02:30am 12.3 - - - - SW 13 19 7 10 1022.7 1022.7 -
27/02:00am 12.6 - - - - SSW 15 22 8 12 1022.7 1022.7 -
27/01:30am 12.6 - - - - SW 13 19 7 10 1022.8 1022.8 -
27/01:00am 12.4 - - - - SW 13 19 7 10 1022.8 1022.8 -
27/12:30am 12.5 - - - - SW 17 22 9 12 1022.8 1022.8 -
27/12:00am 12.2 - - - - SW 13 24 7 13 1023.0 1023.0 -
 
Date/Time
EST
Temp
°C
App
Temp
°C
Dew
Point
Rel
Hum
%
Delta-T
°C
Wind Press
QNH
hPa
Press
MSL
hPa
Rain
since 9 am
mm
Dir
 
Spd
km/h
Gust
km/h
Spd
kts
Gust
kts
26/11:30pm 11.8 - - - - SW 13 17 7 9 1023.0 1023.0 -
26/11:00pm 11.9 - - - - WSW 9 13 5 7 1022.9 1022.9 -
26/10:30pm 12.2 - - - - SSW 17 24 9 13 1023.0 1023.0 -
26/10:00pm 12.4 - - - - WSW 15 24 8 13 1023.1 1023.1 -
26/09:30pm 13.0 - - - - SW 15 20 8 11 1023.0 1023.0 -
26/09:00pm 13.2 - - - - SW 15 20 8 11 1022.9 1022.9 -
26/08:30pm 12.7 - - - - WSW 13 20 7 11 1022.7 1022.7 -
26/08:00pm 12.8 - - - - SW 15 26 8 14 1022.6 1022.6 -
26/07:30pm 12.9 - - - - SW 13 22 7 12 1022.6 1022.6 -
26/07:00pm 12.4 - - - - WSW 15 19 8 10 1022.5 1022.5 -
26/06:30pm 13.0 - - - - SW 17 24 9 13 1022.3 1022.3 -
26/06:00pm 13.2 - - - - SW 17 22 9 12 1022.1 1022.1 -
26/05:30pm 13.4 - - - - SW 26 39 14 21 1021.9 1021.9 -
26/05:00pm 13.8 - - - - SW 19 32 10 17 1021.7 1021.7 -
26/04:30pm 13.7 - - - - SW 24 35 13 19 1021.6 1021.6 -
26/04:00pm 13.6 - - - - SW 22 33 12 18 1021.5 1021.5 -
26/03:30pm 13.8 - - - - SW 26 39 14 21 1021.4 1021.4 -
26/03:00pm 13.1 - - - - WSW 19 28 10 15 1021.3 1021.3 -
26/02:30pm 13.7 - - - - SW 26 37 14 20 1021.2 1021.2 -
26/02:00pm 13.4 - - - - SW 26 39 14 21 1021.2 1021.2 -
26/01:30pm 14.0 - - - - SW 24 33 13 18 1021.2 1021.2 -
26/01:00pm 14.0 - - - - SW 28 41 15 22 1021.0 1021.0 -
26/12:30pm 13.0 - - - - SW 24 32 13 17 1021.3 1021.3 -
26/12:00pm 13.5 - - - - SW 20 32 11 17 1021.4 1021.4 -
26/11:30am 13.3 - - - - SW 26 33 14 18 1021.6 1021.6 -
26/11:00am 13.1 - - - - SSW 26 33 14 18 1021.7 1021.7 -
26/10:30am 12.9 - - - - SW 19 24 10 13 1021.6 1021.6 -
26/10:00am 12.8 - - - - SW 17 28 9 15 1021.5 1021.5 -
26/09:30am 12.8 - - - - SSW 20 33 11 18 1021.4 1021.4 -
26/09:00am 12.0 - - - - SW 15 24 8 13 1021.2 1021.2 -
26/08:30am 11.5 - - - - SW 20 35 11 19 1021.2 1021.2 -
26/08:00am 11.6 - - - - SSW 22 35 12 19 1020.7 1020.7 -
26/07:30am 11.3 - - - - SW 19 28 10 15 1020.2 1020.2 -
26/07:00am 11.8 - - - - SW 13 17 7 9 1019.7 1019.7 -
26/06:30am 11.9 - - - - SW 13 19 7 10 1019.5 1019.5 -
26/06:00am 11.9 - - - - SW 13 20 7 11 1019.3 1019.3 -
26/05:30am 11.9 - - - - SSW 15 22 8 12 1019.3 1019.3 -
26/05:00am 11.6 - - - - SSW 19 26 10 14 1019.1 1019.1 -
26/04:30am 11.4 - - - - SW 13 20 7 11 1019.0 1019.0 -
26/04:00am 11.4 - - - - SW 20 30 11 16 1018.7 1018.7 -
26/03:30am 11.8 - - - - SW 15 28 8 15 1018.6 1018.6 -
26/03:00am 11.6 - - - - SSW 30 44 16 24 1018.8 1018.8 -
26/02:30am 12.8 - - - - S 22 32 12 17 1018.6 1018.6 -
26/02:00am 12.6 - - - - SSW 19 26 10 14 1018.3 1018.3 -
26/01:30am 12.2 - - - - SW 13 17 7 9 1018.3 1018.3 -
26/01:00am 12.6 - - - - SSW 24 35 13 19 1018.2 1018.2 -
26/12:30am 12.7 - - - - S 19 26 10 14 1018.1 1018.1 -
26/12:00am 12.7 - - - - S 24 35 13 19 1018.0 1018.0 -
 
Date/Time
EST
Temp
°C
App
Temp
°C
Dew
Point
Rel
Hum
%
Delta-T
°C
Wind Press
QNH
hPa
Press
MSL
hPa
Rain
since 9 am
mm
Dir
 
Spd
km/h
Gust
km/h
Spd
kts
Gust
kts
25/11:30pm 12.8 - - - - S 19 35 10 19 1018.1 1018.1 -
25/11:00pm 12.4 - - - - S 22 30 12 16 1018.0 1018.0 -
25/10:30pm 11.9 - - - - S 17 30 9 16 1018.0 1018.0 -
25/10:10pm 12.1 - - - - S 28 41 15 22 1018.0 1018.0 -
25/10:00pm 12.5 - - - - S 15 20 8 11 1017.9 1017.9 -
25/09:30pm 12.6 - - - - SSW 22 32 12 17 1017.7 1017.7 -
25/09:00pm 13.0 - - - - S 20 28 11 15 1017.4 1017.4 -
25/08:30pm 13.1 - - - - S 22 32 12 17 1017.2 1017.2 -
25/08:00pm 13.2 - - - - S 24 33 13 18 1016.9 1016.9 -
25/07:30pm 13.4 - - - - S 19 30 10 16 1016.5 1016.5 -
25/07:00pm 13.5 - - - - S 22 32 12 17 1016.3 1016.3 -
25/06:30pm 13.5 - - - - S 24 32 13 17 1015.8 1015.8 -
25/06:00pm 13.4 - - - - S 24 33 13 18 1015.2 1015.2 -
25/05:30pm 13.6 - - - - S 28 39 15 21 1014.7 1014.7 -
25/05:00pm 13.7 - - - - S 30 43 16 23 1014.4 1014.4 -
25/04:30pm 13.8 - - - - S 33 44 18 24 1014.0 1014.0 -
25/04:00pm 14.2 - - - - S 30 39 16 21 1013.6 1013.6 -
25/03:30pm 13.8 - - - - SSE 28 44 15 24 1013.1 1013.1 -
25/03:00pm 14.4 - - - - SSE 30 43 16 23 1012.7 1012.7 -
25/02:30pm 14.9 - - - - SSE 24 37 13 20 1012.3 1012.3 -
25/02:00pm 14.6 - - - - SSE 30 43 16 23 1012.0 1012.0 -
25/01:30pm 14.6 - - - - SSE 26 43 14 23 1011.7 1011.7 -
25/01:00pm 15.0 - - - - SSE 28 37 15 20 1011.4 1011.4 -
25/12:30pm 14.5 - - - - SE 26 39 14 21 1011.4 1011.4 -
25/12:00pm 14.7 - - - - SSE 30 41 16 22 1011.2 1011.2 -
25/11:30am 14.1 - - - - SE 30 43 16 23 1011.1 1011.1 -
25/11:00am 13.2 - - - - SSE 32 46 17 25 1010.8 1010.8 -
25/10:59am 13.4 - - - - SSE 30 44 16 24 1010.7 1010.7 -
25/10:30am 13.1 - - - - S 17 24 9 13 1010.5 1010.5 -
25/10:00am 14.1 - - - - S 19 30 10 16 1010.0 1010.0 -
25/09:30am 13.9 - - - - S 13 17 7 9 1009.9 1009.9 -
25/09:00am 13.9 - - - - S 13 17 7 9 1009.5 1009.5 -
25/08:30am 12.5 - - - - SW 6 7 3 4 1009.1 1009.1 -
25/08:00am 11.7 - - - - WSW 7 9 4 5 1008.8 1008.8 -
25/07:30am 11.5 - - - - WNW 6 7 3 4 1008.4 1008.4 -
25/07:00am 11.0 - - - - WNW 7 9 4 5 1008.0 1008.0 -
25/06:30am 10.5 - - - - WNW 9 13 5 7 1007.7 1007.7 -
25/06:00am 10.1 - - - - W 11 15 6 8 1007.4 1007.4 -
25/05:30am 9.9 - - - - W 13 15 7 8 1007.1 1007.1 -
25/05:00am 9.9 - - - - W 11 13 6 7 1007.0 1007.0 -
25/04:30am 10.2 - - - - W 9 11 5 6 1006.9 1006.9 -
25/04:00am 10.3 - - - - W 9 11 5 6 1006.7 1006.7 -
25/03:30am 10.4 - - - - W 7 9 4 5 1006.7 1006.7 -
25/03:00am 10.4 - - - - WNW 9 13 5 7 1006.6 1006.6 -
25/02:30am 10.6 - - - - WNW 7 11 4 6 1006.6 1006.6 -
25/02:00am 10.4 - - - - W 6 9 3 5 1006.4 1006.4 -
25/01:30am 10.5 - - - - WNW 9 11 5 6 1006.3 1006.3 -
25/01:00am 10.6 - - - - WNW 6 9 3 5 1006.4 1006.4 -
25/12:30am 10.7 - - - - NW 7 11 4 6 1006.3 1006.3 -
25/12:00am 10.8 - - - - WNW 6 7 3 4 1006.3 1006.3 -

Other Formats:

Comma delimited format used in spreadsheet applications
http://www.bom.gov.au/fwo/IDV60801/IDV60801.95826.axf

JavaScript Object Notation format (JSON) in row-major order
http://www.bom.gov.au/fwo/IDV60801/IDV60801.95826.json